createdAt,value
2019-05-25T00:01:47.774Z,7.87
2019-05-25T00:04:23.717Z,5.57
2019-05-25T00:06:58.191Z,6.20
2019-05-25T00:09:30.037Z,6.90
2019-05-25T00:12:04.552Z,8.77
2019-05-25T00:14:36.492Z,9.03
2019-05-25T00:17:09.291Z,5.80
2019-05-25T00:19:40.866Z,10.73
2019-05-25T00:22:16.304Z,9.13
2019-05-25T00:24:48.241Z,8.40
2019-05-25T00:27:19.902Z,6.40
2019-05-25T00:29:51.773Z,9.17
2019-05-25T00:32:24.580Z,10.03
2019-05-25T00:34:57.018Z,9.87
2019-05-25T00:37:39.897Z,7.87
2019-05-25T00:40:14.479Z,9.63
2019-05-25T00:42:46.558Z,9.87
2019-05-25T00:45:18.141Z,10.67
2019-05-25T00:47:49.692Z,7.67
2019-05-25T00:50:21.382Z,7.43
2019-05-25T00:52:53.899Z,9.83
2019-05-25T00:55:26.009Z,9.40
2019-05-25T00:58:00.242Z,7.27
2019-05-25T01:00:30.783Z,8.87
2019-05-25T01:03:04.893Z,10.07
2019-05-25T01:05:36.933Z,8.77
2019-05-25T01:08:10.702Z,8.87
2019-05-25T01:10:43.412Z,11.57
2019-05-25T01:13:15.254Z,8.23
2019-05-25T01:15:48.401Z,7.50
2019-05-25T01:18:19.917Z,10.27
2019-05-25T01:20:51.741Z,11.17
2019-05-25T01:23:24.487Z,9.50
2019-05-25T01:25:57.329Z,9.97
2019-05-25T01:28:30.140Z,8.70
2019-05-25T01:31:03.049Z,7.33
2019-05-25T01:33:35.739Z,10.27
2019-05-25T01:36:07.598Z,9.37
2019-05-25T01:38:40.398Z,12.63
2019-05-25T01:41:13.211Z,12.53
2019-05-25T01:43:45.944Z,9.03
2019-05-25T01:46:19.077Z,10.53
2019-05-25T01:48:51.756Z,8.83
2019-05-25T01:51:24.543Z,12.17
2019-05-25T01:53:56.742Z,9.50
2019-05-25T01:56:28.419Z,10.57
2019-05-25T01:59:02.379Z,14.73
2019-05-25T02:01:33.917Z,10.03
2019-05-25T02:04:06.733Z,14.67
2019-05-25T02:06:39.008Z,10.33
2019-05-25T02:09:11.464Z,13.40
2019-05-25T02:11:42.211Z,9.53
2019-05-25T02:14:13.480Z,10.30
2019-05-25T02:16:44.783Z,12.57
2019-05-25T02:19:20.582Z,12.13
2019-05-25T02:21:53.060Z,12.23
2019-05-25T02:24:25.091Z,11.60
2019-05-25T02:26:57.933Z,11.47
2019-05-25T02:29:29.781Z,9.57
2019-05-25T02:32:02.580Z,11.10
2019-05-25T02:34:35.338Z,10.60
2019-05-25T02:37:06.969Z,15.30
2019-05-25T02:39:38.713Z,9.13
2019-05-25T02:42:12.812Z,11.60
2019-05-25T02:44:45.611Z,16.80
2019-05-25T02:47:17.650Z,10.40
2019-05-25T02:49:52.274Z,12.37
2019-05-25T02:52:25.080Z,15.67
2019-05-25T02:54:57.549Z,11.13
2019-05-25T02:57:31.545Z,13.27
2019-05-25T03:00:04.008Z,11.97
2019-05-25T03:02:35.754Z,12.67
2019-05-25T03:05:10.138Z,13.17
2019-05-25T03:07:43.679Z,14.20
2019-05-25T03:10:17.107Z,9.50
2019-05-25T03:12:48.605Z,11.23
2019-05-25T03:15:21.362Z,15.87
2019-05-25T03:17:53.726Z,14.00
2019-05-25T03:20:25.143Z,12.30
2019-05-25T03:22:56.565Z,13.40
2019-05-25T03:25:28.845Z,10.70
2019-05-25T03:28:00.606Z,11.63
2019-05-25T03:30:35.080Z,14.43
2019-05-25T03:33:06.982Z,11.67
2019-05-25T03:35:41.457Z,14.20
2019-05-25T03:38:12.997Z,14.13
2019-05-25T03:40:47.492Z,11.67
2019-05-25T03:43:19.895Z,15.40
2019-05-25T03:45:51.428Z,10.10
2019-05-25T03:48:23.909Z,11.60
2019-05-25T03:50:58.488Z,12.67
2019-05-25T03:53:30.246Z,13.37
2019-05-25T03:56:05.971Z,14.70
2019-05-25T03:58:34.943Z,13.10
2019-05-25T04:01:07.623Z,13.80
2019-05-25T04:03:39.965Z,13.23
2019-05-25T04:06:11.685Z,17.00
2019-05-25T04:08:45.781Z,15.40
2019-05-25T04:11:18.434Z,15.17
2019-05-25T04:13:51.110Z,14.37
2019-05-25T04:16:23.947Z,13.33
2019-05-25T04:18:56.354Z,14.50
2019-05-25T04:21:28.774Z,12.23
2019-05-25T04:24:00.739Z,10.03
2019-05-25T04:26:34.662Z,11.80
2019-05-25T04:29:07.465Z,15.70
2019-05-25T04:31:40.209Z,14.17
2019-05-25T04:34:13.010Z,14.63
2019-05-25T04:36:46.292Z,14.20
2019-05-25T04:39:20.932Z,11.60
2019-05-25T04:41:53.923Z,11.87
2019-05-25T04:44:25.895Z,12.80
2019-05-25T04:46:58.398Z,10.10
2019-05-25T04:49:30.142Z,12.77
2019-05-25T04:52:06.031Z,11.83
2019-05-25T04:54:37.862Z,11.53
2019-05-25T04:57:09.692Z,12.67
2019-05-25T04:59:42.950Z,11.33
2019-05-25T05:02:17.004Z,12.37
2019-05-25T05:04:49.412Z,15.40
2019-05-25T05:07:22.101Z,10.53
2019-05-25T05:10:02.054Z,7.93
2019-05-25T05:12:29.383Z,14.47
2019-05-25T05:15:00.861Z,11.40
2019-05-25T05:17:32.605Z,12.30
2019-05-25T05:20:06.517Z,12.03
2019-05-25T05:22:41.372Z,20.20
2019-05-25T05:25:13.423Z,14.13
2019-05-25T05:27:44.791Z,16.63
2019-05-25T05:30:15.840Z,13.60
2019-05-25T05:32:48.438Z,12.73
2019-05-25T05:35:21.215Z,14.20
2019-05-25T05:37:54.124Z,12.73
2019-05-25T05:40:26.010Z,10.60
2019-05-25T05:43:01.733Z,10.30
2019-05-25T05:45:35.937Z,14.97
2019-05-25T05:48:12.765Z,14.80
2019-05-25T05:50:47.654Z,9.87
2019-05-25T05:53:21.569Z,9.80
2019-05-25T05:55:52.685Z,12.70
2019-05-25T05:58:25.434Z,10.97
2019-05-25T06:00:58.197Z,8.90
2019-05-25T06:03:31.534Z,12.30
2019-05-25T06:06:03.382Z,10.17
2019-05-25T06:08:36.187Z,11.77
2019-05-25T06:11:07.946Z,10.70
2019-05-25T06:13:39.512Z,8.97
2019-05-25T06:16:10.858Z,6.07
2019-05-25T06:18:42.570Z,9.43
2019-05-25T06:21:15.416Z,10.73
2019-05-25T06:23:48.213Z,8.40
2019-05-25T06:26:20.630Z,8.03
2019-05-25T06:28:52.937Z,7.43
2019-05-25T06:31:24.389Z,8.33
2019-05-25T06:33:55.642Z,7.30
2019-05-25T06:36:27.565Z,6.17
2019-05-25T06:38:59.434Z,5.53
2019-05-25T06:41:30.910Z,6.30
2019-05-25T06:44:04.046Z,7.50
2019-05-25T06:46:37.855Z,6.10
2019-05-25T06:49:11.630Z,6.17
2019-05-25T06:51:45.069Z,8.80
2019-05-25T06:54:19.542Z,9.03
2019-05-25T06:56:53.072Z,3.70
2019-05-25T06:59:25.756Z,4.60
2019-05-25T07:01:58.562Z,5.90
2019-05-25T07:04:31.698Z,5.00
2019-05-25T07:07:04.386Z,7.03
2019-05-25T07:09:39.950Z,6.00
2019-05-25T07:12:11.793Z,5.73
2019-05-25T07:14:43.885Z,7.17
2019-05-25T07:17:15.587Z,4.73
2019-05-25T07:19:49.099Z,7.53
2019-05-25T07:22:20.525Z,4.07
2019-05-25T07:24:52.944Z,5.13
2019-05-25T07:27:27.017Z,6.13
2019-05-25T07:29:59.389Z,4.73
2019-05-25T07:32:33.302Z,5.87
2019-05-25T07:35:07.803Z,7.07
2019-05-25T07:37:43.968Z,5.23
2019-05-25T07:40:18.730Z,6.07
2019-05-25T07:42:50.626Z,6.70
2019-05-25T07:45:22.193Z,3.57
2019-05-25T07:47:53.917Z,5.23
2019-05-25T07:50:28.438Z,6.37
2019-05-25T07:53:00.290Z,5.50
2019-05-25T07:55:34.685Z,5.40
2019-05-25T07:58:17.692Z,7.47
2019-05-25T08:00:44.026Z,4.90
2019-05-25T08:03:15.895Z,4.80
2019-05-25T08:05:48.728Z,7.77
2019-05-25T08:08:20.669Z,5.80
2019-05-25T08:10:52.222Z,5.87
2019-05-25T08:13:23.994Z,6.47
2019-05-25T08:15:57.353Z,7.73
2019-05-25T08:18:29.723Z,8.57
2019-05-25T08:21:02.035Z,4.73
2019-05-25T08:23:33.758Z,5.93
2019-05-25T08:26:05.794Z,6.97
2019-05-25T08:28:38.226Z,6.43
2019-05-25T08:31:10.890Z,6.67
2019-05-25T08:33:42.590Z,6.07
2019-05-25T08:36:17.826Z,9.23
2019-05-25T08:38:50.634Z,11.33
2019-05-25T08:41:23.029Z,8.23
2019-05-25T08:43:54.668Z,8.00
2019-05-25T08:46:27.918Z,13.47
2019-05-25T08:48:59.752Z,8.80
2019-05-25T08:51:32.245Z,9.67
2019-05-25T08:54:03.939Z,8.33
2019-05-25T08:56:35.478Z,8.67
2019-05-25T08:59:10.609Z,8.63
2019-05-25T09:01:45.073Z,8.63
2019-05-25T09:04:20.907Z,9.83
2019-05-25T09:06:53.861Z,8.30
2019-05-25T09:09:27.949Z,11.10
2019-05-25T09:11:59.897Z,11.93
2019-05-25T09:14:32.290Z,11.00
2019-05-25T09:17:04.558Z,11.37
2019-05-25T09:19:36.266Z,7.93
2019-05-25T09:22:08.674Z,13.63
2019-05-25T09:24:40.898Z,10.20
2019-05-25T09:27:13.567Z,9.07
2019-05-25T09:29:46.338Z,9.90
2019-05-25T09:32:19.096Z,11.87
2019-05-25T09:34:51.331Z,11.97
2019-05-25T09:37:24.138Z,9.37
2019-05-25T09:39:56.771Z,10.40
2019-05-25T09:42:29.963Z,10.27
2019-05-25T09:45:03.033Z,11.67
2019-05-25T09:47:34.132Z,12.00
2019-05-25T09:50:10.573Z,10.53
2019-05-25T09:52:42.461Z,10.97
2019-05-25T09:55:14.757Z,13.70
2019-05-25T09:57:46.526Z,11.80
2019-05-25T10:00:21.489Z,13.37
2019-05-25T10:02:54.823Z,9.37
2019-05-25T10:05:26.814Z,10.50
2019-05-25T10:08:00.248Z,10.27
2019-05-25T10:10:34.443Z,10.73
2019-05-25T10:13:07.313Z,9.20
2019-05-25T10:15:40.058Z,10.20
2019-05-25T10:18:12.791Z,13.93
2019-05-25T10:20:44.502Z,13.33
2019-05-25T10:23:16.890Z,12.90
2019-05-25T10:25:48.350Z,13.03
2019-05-25T10:28:20.922Z,14.27
2019-05-25T10:30:52.411Z,10.83
2019-05-25T10:33:25.704Z,8.97
2019-05-25T10:35:56.753Z,10.17
2019-05-25T10:38:30.182Z,10.43
2019-05-25T10:41:02.046Z,12.67
2019-05-25T10:43:34.834Z,11.73
2019-05-25T10:46:07.914Z,10.57
2019-05-25T10:48:40.301Z,10.67
2019-05-25T10:51:12.602Z,7.07
2019-05-25T10:53:46.952Z,7.50
2019-05-25T10:56:18.793Z,7.63
2019-05-25T10:58:51.747Z,8.33
2019-05-25T11:01:24.397Z,9.97
2019-05-25T11:03:58.917Z,9.03
2019-05-25T11:06:34.825Z,9.00
2019-05-25T11:09:08.395Z,7.30
2019-05-25T11:11:40.245Z,10.17
2019-05-25T11:14:14.179Z,8.43
2019-05-25T11:16:45.893Z,11.73
2019-05-25T11:19:24.145Z,7.67
2019-05-25T11:21:55.553Z,7.90
2019-05-25T11:24:28.245Z,8.53
2019-05-25T11:27:02.685Z,8.47
2019-05-25T11:29:35.153Z,10.30
2019-05-25T11:32:07.702Z,9.67
2019-05-25T11:34:39.389Z,7.43
2019-05-25T11:37:15.504Z,9.73
2019-05-25T11:39:45.721Z,9.23
2019-05-25T11:42:18.521Z,8.27
2019-05-25T11:44:50.448Z,11.70
2019-05-25T11:47:23.943Z,10.97
2019-05-25T11:49:56.365Z,9.53
2019-05-25T11:52:28.757Z,9.87
2019-05-25T11:55:01.018Z,10.67
2019-05-25T11:57:33.731Z,10.13
2019-05-25T12:00:24.795Z,8.10
2019-05-25T12:02:50.398Z,8.33
2019-05-25T12:05:23.364Z,7.43
2019-05-25T12:07:56.483Z,6.90
2019-05-25T12:10:30.566Z,7.23
2019-05-25T12:13:05.094Z,8.20
2019-05-25T12:15:36.642Z,7.43
2019-05-25T12:18:10.765Z,6.50
2019-05-25T12:20:42.562Z,7.07
2019-05-25T12:23:14.521Z,6.93
2019-05-25T12:25:45.674Z,10.20
2019-05-25T12:28:16.026Z,6.53
2019-05-25T12:30:48.679Z,6.80
2019-05-25T12:33:20.649Z,8.27
2019-05-25T12:35:52.249Z,7.33
2019-05-25T12:38:24.889Z,6.47
2019-05-25T12:40:57.733Z,6.40
2019-05-25T12:43:30.417Z,8.03
2019-05-25T12:46:04.846Z,6.50
2019-05-25T12:48:36.502Z,6.20
2019-05-25T12:51:09.770Z,8.47
2019-05-25T12:53:42.794Z,7.47
2019-05-25T12:56:14.674Z,8.70
2019-05-25T12:58:46.569Z,8.80
2019-05-25T13:01:19.159Z,7.40
2019-05-25T13:03:52.978Z,9.23
2019-05-25T13:06:24.854Z,6.23
2019-05-25T13:08:57.467Z,9.60
2019-05-25T13:11:30.683Z,8.57
2019-05-25T13:14:14.206Z,9.23
2019-05-25T13:16:35.370Z,7.07
2019-05-25T13:19:09.460Z,8.20
2019-05-25T13:21:41.810Z,6.97
2019-05-25T13:24:14.022Z,6.50
2019-05-25T13:26:48.195Z,8.10
2019-05-25T13:29:20.587Z,8.37
2019-05-25T13:31:55.782Z,8.63
2019-05-25T13:34:28.590Z,6.00
2019-05-25T13:37:01.839Z,6.63
2019-05-25T13:39:33.354Z,6.00
2019-05-25T13:42:05.530Z,7.03
2019-05-25T13:44:36.886Z,9.00
2019-05-25T13:47:10.328Z,7.40
2019-05-25T13:49:42.200Z,5.33
2019-05-25T13:52:15.430Z,7.70
2019-05-25T13:54:47.827Z,8.70
2019-05-25T13:57:21.899Z,8.70
2019-05-25T13:59:54.542Z,7.63
2019-05-25T14:02:26.789Z,6.57
2019-05-25T14:04:59.229Z,7.27
2019-05-25T14:07:33.905Z,6.57
2019-05-25T14:10:08.597Z,5.67
2019-05-25T14:12:41.105Z,7.47
2019-05-25T14:15:14.663Z,6.40
2019-05-25T14:17:47.140Z,6.90
2019-05-25T14:20:19.967Z,6.10
2019-05-25T14:22:51.813Z,6.93
2019-05-25T14:25:26.299Z,7.43
2019-05-25T14:27:59.680Z,6.67
2019-05-25T14:30:31.397Z,4.93
2019-05-25T14:33:03.813Z,8.17
2019-05-25T14:35:37.899Z,5.60
2019-05-25T14:38:09.702Z,4.57
2019-05-25T14:40:41.576Z,6.27
2019-05-25T14:43:14.373Z,9.43
2019-05-25T14:45:46.913Z,6.13
2019-05-25T14:48:18.646Z,5.40
2019-05-25T14:50:50.194Z,7.47
2019-05-25T14:53:24.294Z,5.93
2019-05-25T14:55:56.578Z,7.10
2019-05-25T14:58:28.862Z,5.30
2019-05-25T15:01:00.291Z,5.57
2019-05-25T15:03:31.648Z,7.77
2019-05-25T15:06:03.481Z,6.30
2019-05-25T15:08:35.994Z,9.37
2019-05-25T15:11:10.816Z,5.33
2019-05-25T15:13:42.653Z,4.43
2019-05-25T15:16:14.937Z,5.27
2019-05-25T15:18:47.224Z,7.37
2019-05-25T15:21:20.009Z,5.83
2019-05-25T15:23:54.439Z,5.93
2019-05-25T15:26:26.259Z,6.23
2019-05-25T15:28:58.999Z,4.97
2019-05-25T15:31:32.217Z,4.33
2019-05-25T15:34:03.662Z,8.07
2019-05-25T15:36:36.687Z,4.90
2019-05-25T15:39:08.773Z,5.50
2019-05-25T15:41:40.206Z,5.80
2019-05-25T15:44:11.975Z,4.67
2019-05-25T15:46:43.571Z,4.20
2019-05-25T15:49:16.021Z,5.93
2019-05-25T15:51:49.638Z,5.97
2019-05-25T15:54:22.883Z,4.53
2019-05-25T15:56:55.166Z,7.07
2019-05-25T15:59:27.653Z,7.13
2019-05-25T16:01:59.528Z,4.77
2019-05-25T16:04:32.054Z,7.83
2019-05-25T16:07:03.525Z,5.50
2019-05-25T16:09:36.164Z,5.10
2019-05-25T16:12:08.465Z,4.60
2019-05-25T16:14:39.813Z,4.60
2019-05-25T16:17:11.678Z,5.70
2019-05-25T16:19:44.506Z,5.53
2019-05-25T16:22:16.809Z,6.30
2019-05-25T16:24:50.875Z,4.23
2019-05-25T16:27:23.307Z,5.33
2019-05-25T16:29:56.023Z,4.53
2019-05-25T16:32:28.824Z,7.07
2019-05-25T16:35:01.238Z,3.73
2019-05-25T16:37:32.979Z,5.57
2019-05-25T16:40:06.634Z,6.60
2019-05-25T16:42:38.399Z,3.60
2019-05-25T16:45:10.749Z,5.17
2019-05-25T16:47:42.577Z,4.80
2019-05-25T16:50:16.415Z,4.83
2019-05-25T16:52:49.161Z,6.30
2019-05-25T16:55:22.174Z,7.77
2019-05-25T16:57:54.818Z,5.93
2019-05-25T17:00:29.864Z,6.77
2019-05-25T17:03:01.799Z,5.27
2019-05-25T17:05:33.780Z,4.67
2019-05-25T17:08:04.953Z,5.80
2019-05-25T17:10:39.845Z,8.07
2019-05-25T17:13:11.680Z,5.80
2019-05-25T17:15:43.502Z,7.27
2019-05-25T17:18:15.861Z,4.60
2019-05-25T17:20:48.219Z,4.93
2019-05-25T17:23:19.578Z,4.83
2019-05-25T17:25:52.861Z,6.67
2019-05-25T17:28:24.555Z,6.60
2019-05-25T17:30:56.430Z,7.00
2019-05-25T17:33:44.611Z,8.47
2019-05-25T17:36:03.327Z,7.40
2019-05-25T17:38:34.750Z,6.90
2019-05-25T17:41:08.381Z,5.70
2019-05-25T17:43:40.914Z,6.53
2019-05-25T17:46:13.606Z,4.60
2019-05-25T17:48:46.348Z,6.30
2019-05-25T17:51:21.104Z,8.03
2019-05-25T17:53:53.533Z,5.93
2019-05-25T17:56:24.958Z,13.00
2019-05-25T17:58:57.835Z,7.43
2019-05-25T18:01:30.588Z,4.87
2019-05-25T18:04:07.020Z,5.30
2019-05-25T18:06:37.742Z,6.73
2019-05-25T18:09:10.661Z,5.67
2019-05-25T18:11:43.446Z,6.03
2019-05-25T18:14:15.473Z,7.77
2019-05-25T18:16:47.733Z,8.40
2019-05-25T18:19:20.025Z,6.30
2019-05-25T18:21:51.750Z,4.57
2019-05-25T18:24:24.274Z,4.87
2019-05-25T18:29:46.585Z,5.90
2019-05-25T18:32:19.702Z,6.33
2019-05-25T18:34:53.787Z,4.30
2019-05-25T18:37:26.254Z,3.97
2019-05-25T18:39:58.674Z,4.77
2019-05-25T18:42:31.333Z,6.10
2019-05-25T18:45:05.953Z,7.07
2019-05-25T18:47:40.314Z,5.70
2019-05-25T18:50:14.493Z,4.83
2019-05-25T18:52:47.709Z,7.43
2019-05-25T18:55:19.369Z,6.90
2019-05-25T18:57:51.678Z,5.90
2019-05-25T19:00:25.906Z,7.23
2019-05-25T19:02:58.817Z,6.20
2019-05-25T19:05:30.690Z,5.83
2019-05-25T19:08:03.489Z,11.23
2019-05-25T19:10:36.731Z,7.17
2019-05-25T19:13:09.254Z,6.60
2019-05-25T19:15:41.641Z,6.40
2019-05-25T19:18:13.379Z,5.67
2019-05-25T19:20:45.139Z,7.23
2019-05-25T19:23:17.529Z,8.63
2019-05-25T19:25:49.087Z,7.53
2019-05-25T19:28:20.830Z,6.37
2019-05-25T19:30:54.894Z,8.67
2019-05-25T19:33:26.774Z,8.47
2019-05-25T19:36:01.285Z,8.67
2019-05-25T19:38:33.753Z,6.37
2019-05-25T19:41:07.432Z,6.63
2019-05-25T19:43:38.950Z,5.20
2019-05-25T19:46:10.722Z,9.17
2019-05-25T19:48:43.454Z,5.87
2019-05-25T19:51:18.697Z,9.20
2019-05-25T19:53:51.075Z,7.13
2019-05-25T19:56:23.405Z,8.87
2019-05-25T19:58:56.105Z,5.33
2019-05-25T20:01:28.945Z,7.63
2019-05-25T20:04:02.510Z,9.57
2019-05-25T20:06:35.265Z,6.43
2019-05-25T20:09:06.731Z,7.37
2019-05-25T20:11:37.670Z,6.90
2019-05-25T20:14:10.789Z,6.00
2019-05-25T20:16:42.641Z,8.93
2019-05-25T20:19:15.903Z,8.10
2019-05-25T20:21:49.121Z,7.10
2019-05-25T20:24:23.495Z,7.20
2019-05-25T20:26:56.254Z,8.40
2019-05-25T20:29:29.511Z,7.97
2019-05-25T20:32:02.028Z,8.50
2019-05-25T20:34:34.917Z,7.30
2019-05-25T20:37:07.655Z,8.37
2019-05-25T20:39:40.147Z,9.03
2019-05-25T20:42:14.992Z,7.77
2019-05-25T20:44:46.053Z,7.83
2019-05-25T20:47:18.722Z,8.97
2019-05-25T20:49:53.293Z,9.20
2019-05-25T20:52:24.902Z,8.97
2019-05-25T20:54:58.250Z,7.07
2019-05-25T20:57:29.989Z,6.00
2019-05-25T21:00:01.478Z,8.67
2019-05-25T21:02:34.116Z,8.57
2019-05-25T21:05:10.882Z,9.13
2019-05-25T21:07:43.730Z,6.97
2019-05-25T21:10:16.430Z,5.53
2019-05-25T21:12:47.899Z,6.80
2019-05-25T21:15:19.565Z,10.83
2019-05-25T21:17:51.105Z,6.03
2019-05-25T21:20:23.362Z,8.30
2019-05-25T21:22:54.719Z,11.37
2019-05-25T21:25:27.096Z,8.77
2019-05-25T21:27:59.378Z,9.37
2019-05-25T21:30:33.767Z,7.67
2019-05-25T21:33:06.920Z,8.73
2019-05-25T21:35:39.807Z,10.00
2019-05-25T21:38:12.286Z,8.50
2019-05-25T21:40:43.742Z,11.87
2019-05-25T21:43:17.761Z,10.80
2019-05-25T21:45:50.520Z,10.93
2019-05-25T21:48:22.361Z,8.23
2019-05-25T21:50:54.951Z,10.77
2019-05-25T21:53:26.638Z,11.63
2019-05-25T21:55:59.346Z,10.73
2019-05-25T21:58:31.821Z,8.97
2019-05-25T22:01:04.800Z,9.20
2019-05-25T22:03:36.305Z,8.20
2019-05-25T22:06:23.334Z,8.67
2019-05-25T22:08:44.849Z,8.37
2019-05-25T22:11:15.897Z,10.03
2019-05-25T22:13:47.346Z,8.87
2019-05-25T22:16:19.701Z,10.87
2019-05-25T22:18:51.106Z,9.67
2019-05-25T22:21:25.579Z,10.80
2019-05-25T22:23:59.063Z,11.13
2019-05-25T22:26:31.792Z,8.50
2019-05-25T22:29:04.702Z,11.27
2019-05-25T22:31:37.297Z,14.20
2019-05-25T22:34:09.044Z,12.13
2019-05-25T22:36:43.246Z,9.90
2019-05-25T22:39:14.461Z,12.77
2019-05-25T22:41:46.323Z,13.17
2019-05-25T22:44:17.886Z,9.43
2019-05-25T22:46:49.602Z,10.57
2019-05-25T22:49:21.101Z,10.93
2019-05-25T22:51:53.782Z,10.87
2019-05-25T22:54:27.460Z,11.77
2019-05-25T22:56:59.930Z,12.90
2019-05-25T22:59:31.290Z,11.23
2019-05-25T23:02:03.974Z,12.57
2019-05-25T23:04:36.584Z,11.53
2019-05-25T23:07:11.826Z,11.10
2019-05-25T23:09:45.773Z,17.23
2019-05-25T23:12:19.722Z,14.00
2019-05-25T23:14:52.298Z,15.30
2019-05-25T23:17:24.927Z,13.23
2019-05-25T23:19:56.469Z,17.57
2019-05-25T23:22:28.767Z,11.60
2019-05-25T23:25:00.938Z,10.50
2019-05-25T23:27:32.594Z,16.53
2019-05-25T23:30:07.814Z,13.07
2019-05-25T23:32:40.627Z,12.23
2019-05-25T23:35:14.803Z,14.73
2019-05-25T23:37:47.298Z,11.43
2019-05-25T23:40:20.697Z,11.10
2019-05-25T23:42:54.754Z,12.37
2019-05-25T23:45:26.321Z,12.13
2019-05-25T23:47:59.543Z,16.43
2019-05-25T23:50:32.165Z,13.83
2019-05-25T23:53:07.333Z,12.57
2019-05-25T23:55:40.142Z,11.97
2019-05-25T23:58:12.582Z,13.33
